EW9844 Weather Reports


Display with metric or nautical units.
time (UTC)temp
F
wind
direction
speed
MPH
gust
MPH
rain 1hr
in
rain 24hr
in
rain mn
in
humidity
%
barometer
mb
20191016073257 45 284 0.0 0.0 0.00 0.00 0.00 92 703.5
20191016071707 45 284 0.0 0.0 0.00 0.00 0.00 92 703.8
20191016070219 45 284 0.0 0.0 0.00 0.00 0.00 92 703.9
20191016064652 45 284 0.0 0.0 0.00 0.00 0.00 92 704.1
20191016063128 44 284 0.0 0.0 0.00 0.00 0.00 92 704.3
20191016061634 44 284 0.0 0.0 0.00 0.00 0.00 92 704.3
20191016060132 44 284 0.0 0.0 0.00 0.00 0.00 91 704.3
20191016054611 45 284 0.0 0.0 0.00 0.00 0.00 91 704.6
20191016053122 45 284 0.0 0.0 0.00 0.00 0.00 90 704.6
20191016051626 46 284 0.0 0.0 0.00 0.00 0.00 90 704.8
20191016050129 46 284 0.0 0.0 0.00 0.00 0.00 88 704.9
20191016044620 47 284 0.0 0.0 0.00 0.00 0.00 87 704.9
20191016043038 47 284 0.0 0.0 0.00 0.00 0.00 86 705.0
20191016041615 47 284 0.0 0.0 0.00 0.00 0.00 87 705.0
20191016040053 48 248 0.0 0.0 0.00 0.00 0.00 87 705.2
20191016034541 48 248 0.0 0.0 0.00 0.00 0.00 87 705.2
20191016033129 48 236 0.0 0.0 0.00 0.00 0.00 87 704.9
20191016031614 48 246 0.0 0.0 0.00 0.00 0.00 86 704.8
20191016030041 48 229 0.0 0.0 0.00 0.00 0.00 86 704.8
20191016024605 49 173 0.0 0.0 0.00 0.00 0.00 87 704.6
20191016023050 48 171 0.0 0.0 0.00 0.00 0.00 86 704.4
20191016020056 50 171 0.0 0.0 0.00 0.00 0.00 82 703.9
20191016014609 50 171 0.0 0.0 0.00 0.00 0.00 81 703.8
20191016013038 50 170 0.0 0.0 0.00 0.00 0.00 82 703.6
20191016011529 50 169 0.0 0.0 0.00 0.00 0.00 82 703.4
20191016010035 50 169 0.0 0.0 0.00 0.00 0.00 82 703.1
20191016004556 51 189 0.0 0.0 0.00 0.00 0.00 80 702.7
20191016003041 52 189 0.0 0.0 0.00 0.00 0.00 77 702.5
20191016001529 52 189 0.0 0.0 0.00 0.00 0.00 76 702.3
20191016000111 53 189 0.0 0.0 0.00 0.00 0.00 74 701.8
20191015234548 53 244 0.0 0.0 0.00 0.00 0.00 72 701.5
20191015233127 54 197 0.0 0.0 0.00 0.00 0.00 72 701.1
20191015231549 54 236 0.0 1.0 0.00 0.00 0.00 71 701.1
20191015230031 54 205 0.0 4.0 0.00 0.00 0.00 70 701.1
20191015224549 55 139 0.0 1.0 0.00 0.00 0.00 70 701.0
20191015223040 55 229 0.0 0.0 0.00 0.00 0.00 69 700.7
20191015211649 58 13 0.0 4.0 0.00 0.00 0.00 65 700.2
20191015204615 59 231 0.0 7.0 0.00 0.00 0.00 63 700.1
20191015203136 61 219 0.0 4.0 0.00 0.00 0.00 61 700.0
20191015201621 61 254 0.0 4.0 0.00 0.00 0.00 63 700.3
20191015200114 62 125 0.0 5.0 0.00 0.00 0.00 61 700.6
20191015200111 62 123 0.0 5.0 0.00 0.00 0.00 61 700.6
20191015194557 61 322 0.0 3.0 0.00 0.00 0.00 62 700.7
20191015193124 61 113 0.0 11.0 0.00 0.00 0.00 64 700.9
20191015191603 58 315 0.0 2.0 0.00 0.00 0.00 64 701.3
20191015190110 57 229 0.0 0.0 0.00 0.00 0.00 67 701.7
20191015183155 57 121 0.0 3.0 0.00 0.00 0.00 68 702.2
20191015181651 56 110 0.0 2.0 0.00 0.00 0.00 68 702.5
20191015180122 57 44 0.0 10.0 0.00 0.00 0.00 68 702.8
20191015173122 57 219 0.0 11.0 0.00 0.00 0.00 67 703.2
20191015171725 56 218 0.0 2.0 0.00 0.00 0.00 68 703.4
20191015170123 59 117 0.0 5.0 0.00 0.00 0.00 65 703.5
20191015164604 59 162 0.0 0.0 0.00 0.00 0.00 68 703.6
20191015163102 57 280 0.0 0.0 0.00 0.00 0.00 76 703.9
20191015161544 55 71 0.0 0.0 0.00 0.00 0.00 76 704.4
20191015160043 55 58 0.0 0.0 0.00 0.00 0.00 77 704.7
20191015154655 54 38 0.0 1.0 0.00 0.00 0.00 78 704.8
20191015154503 54 38 0.0 1.0 0.00 0.00 0.00 78 704.8
20191015153158 53 160 0.0 0.0 0.00 0.00 0.00 79 705.0
20191015151638 53 167 0.0 0.0 0.00 0.00 0.00 80 705.2
20191015150132 52 100 0.0 0.0 0.00 0.00 0.00 82 705.5
20191015144627 50 94 0.0 1.0 0.00 0.00 0.00 85 705.7
20191015143202 50 105 0.0 4.0 0.00 0.00 0.00 86 705.7
20191015141616 50 98 0.0 4.0 0.00 0.00 0.00 86 705.8
20191015140120 51 105 0.0 0.0 0.00 0.00 0.00 85 705.7
20191015134600 50 105 0.0 0.0 0.00 0.00 0.00 87 705.6
20191015133123 49 96 0.0 0.0 0.00 0.00 0.00 91 705.5
20191015131619 49 240 0.0 0.0 0.00 0.00 0.00 91 705.4
20191015130156 48 240 0.0 0.0 0.00 0.00 0.00 91 705.1
20191015124714 48 240 0.0 0.0 0.00 0.00 0.00 93 704.8
20191015123252 47 240 0.0 0.0 0.00 0.00 0.00 93 704.6
20191015121759 46 240 0.0 0.0 0.00 0.00 0.00 95 704.4
20191015120143 46 240 0.0 0.0 0.00 0.00 0.00 96 704.3
20191015114655 46 240 0.0 0.0 0.00 0.00 0.00 96 704.1
20191015111622 45 240 0.0 1.0 0.00 0.00 0.00 95 703.8
20191015110144 46 240 0.0 0.0 0.00 0.00 0.00 95 703.8
20191015104555 46 240 0.0 0.0 0.00 0.00 0.00 95 703.7
20191015103140 46 240 0.0 0.0 0.00 0.00 0.00 94 703.6
20191015101550 46 240 0.0 0.0 0.00 0.00 0.00 94 703.6
20191015100140 46 240 0.0 0.0 0.00 0.00 0.00 94 703.4
20191015094612 46 240 0.0 0.0 0.00 0.00 0.00 93 703.4
20191015093129 46 240 0.0 0.0 0.00 0.00 0.00 93 703.3
20191015091627 46 240 0.0 0.0 0.00 0.00 0.00 93 703.2
20191015090144 46 240 0.0 0.0 0.00 0.00 0.00 93 703.2
20191015084552 46 240 0.0 0.0 0.00 0.00 0.00 93 703.1
20191015083055 46 240 0.0 0.0 0.00 0.00 0.00 93 703.3
20191015081656 46 240 0.0 0.0 0.00 0.00 0.00 93 703.4
20191015080136 46 240 0.0 0.0 0.00 0.00 0.00 93 703.4
20191015074609 46 239 0.0 0.0 0.00 0.00 0.00 93 703.5